Time;durP1;ratioP1;P1;durP2;ratioP2;P2;SDS_P1;SDS_P2;PMS_P1;PMS_P2;Temp;Humidity;BMP_temperature;BMP_pressure;BME280_temperature;BME280_humidity;BME280_pressure;Samples;Min_cycle;Max_cycle;Signal;HPM_P1;HPM_P2
2021/10/14 00:01:34;;;;;;;;;;;;;;;;;;5117085;28;19930;-71
2021/10/14 00:04:00;;;;;;;;;;;;;;;;;;5116739;28;20289;-71
2021/10/14 00:06:26;;;;;;;;;;;;;;;;;;5116806;28;19923;-71
2021/10/14 00:08:53;;;;;;;;;;;;;;;;;;5116972;28;19927;-70
2021/10/14 00:11:19;;;;;;;;;;;;;;;;;;5116379;28;20275;-70
2021/10/14 00:13:45;;;;;;;;;;;;;;;;;;5116654;28;20305;-70
2021/10/14 00:16:12;;;;;;;;;;;;;;;;;;5116405;28;19924;-71
2021/10/14 00:18:38;;;;;;;;;;;;;;;;;;5116773;28;19928;-70
2021/10/14 00:21:04;;;;;;;;;;;;;;;;;;5116272;28;19931;-70
2021/10/14 00:23:31;;;;;;;;;;;;;;;;;;5116815;28;19923;-70
2021/10/14 00:25:57;;;;;;;;;;;;;;;;;;5116292;28;20294;-71
2021/10/14 00:28:23;;;;;;;;;;;;;;;;;;5116039;28;19923;-70
2021/10/14 00:30:49;;;;;;;;;;;;;;;;;;5116588;28;19935;-70
2021/10/14 00:33:16;;;;;;;;;;;;;;;;;;5116057;28;19931;-71
2021/10/14 00:35:42;;;;;;;;;;;;;;;;;;5116518;28;19924;-70
2021/10/14 00:38:08;;;;;;;;;;;;;;;;;;5115889;28;20400;-70
2021/10/14 00:40:35;;;;;;;;;;;;;;;;;;5116175;28;19924;-71
2021/10/14 00:43:01;;;;;;;;;;;;;;;;;;5116239;28;19924;-70
2021/10/14 00:45:27;;;;;;;;;;;;;;;;;;5116059;28;20401;-70
2021/10/14 00:47:54;;;;;;;;;;;;;;;;;;5115922;28;19930;-71
2021/10/14 00:50:20;;;;;;;;;;;;;;;;;;5116059;28;19924;-70
2021/10/14 00:52:46;;;;;;;;;;;;;;;;;;5115857;28;19924;-70
2021/10/14 00:55:12;;;;;;;;;;;;;;;;;;5115830;28;19924;-71
2021/10/14 00:57:39;;;;;;;;;;;;;;;;;;5115699;28;19934;-70
2021/10/14 01:00:05;;;;;;;;;;;;;;;;;;5115456;28;19924;-70
2021/10/14 01:02:31;;;;;;;;;;;;;;;;;;5116033;28;19931;-70
2021/10/14 01:04:58;;;;;;;;;;;;;;;;;;5115489;28;19924;-70
2021/10/14 01:07:24;;;;;;;;;;;;;;;;;;5115499;28;19924;-70
2021/10/14 01:09:50;;;;;;;;;;;;;;;;;;5115795;28;19927;-70
2021/10/14 01:12:16;;;;;;;;;;;;;;;;;;5115264;28;19923;-70
2021/10/14 01:14:43;;;;;;;;;;;;;;;;;;5115812;28;19924;-70
2021/10/14 01:17:09;;;;;;;;;;;;;;;;;;5115076;28;20378;-70
2021/10/14 01:19:37;;;;;;;;;;;;;;;;;;5115677;28;19924;-71
2021/10/14 01:22:03;;;;;;;;;;;;;;;;;;5115424;28;19928;-71
2021/10/14 01:24:29;;;;;;;;;;;;;;;;;;5115105;28;20318;-71
2021/10/14 01:26:56;;;;;;;;;;;;;;;;;;5115235;28;19923;-71
2021/10/14 01:29:22;;;;;;;;;;;;;;;;;;5115157;28;19928;-71
2021/10/14 01:31:48;;;;;;;;;;;;;;;;;;5115156;28;20256;-72
2021/10/14 01:34:15;;;;;;;;;;;;;;;;;;5114841;28;19931;-70
2021/10/14 01:36:41;;;;;;;;;;;;;;;;;;5115272;28;19923;-71
2021/10/14 01:39:07;;;;;;;;;;;;;;;;;;5114712;28;19930;-71
2021/10/14 01:41:34;;;;;;;;;;;;;;;;;;5115336;28;19924;-71
2021/10/14 01:44:00;;;;;;;;;;;;;;;;;;5115250;28;19923;-70
2021/10/14 01:46:26;;;;;;;;;;;;;;;;;;5114602;28;19924;-70
2021/10/14 01:48:52;;;;;;;;;;;;;;;;;;5114934;28;19923;-70
2021/10/14 01:51:19;;;;;;;;;;;;;;;;;;5114532;28;20408;-70
2021/10/14 01:53:45;;;;;;;;;;;;;;;;;;5114729;28;19931;-70
2021/10/14 01:56:11;;;;;;;;;;;;;;;;;;5114677;28;19928;-70
2021/10/14 01:58:38;;;;;;;;;;;;;;;;;;5114474;28;19923;-70
2021/10/14 02:01:04;;;;;;;;;;;;;;;;;;5114436;28;19943;-70
2021/10/14 02:03:30;;;;;;;;;;;;;;;;;;5114494;28;20408;-70
2021/10/14 02:05:56;;;;;;;;;;;;;;;;;;5114389;28;19931;-70
2021/10/14 02:08:23;;;;;;;;;;;;;;;;;;5114494;28;19924;-70
2021/10/14 02:10:49;;;;;;;;;;;;;;;;;;5114378;28;19928;-70
2021/10/14 02:13:15;;;;;;;;;;;;;;;;;;5114341;28;19931;-70
2021/10/14 02:15:42;;;;;;;;;;;;;;;;;;5114159;28;19924;-70
2021/10/14 02:18:08;;;;;;;;;;;;;;;;;;5114107;28;19931;-70
2021/10/14 02:20:34;;;;;;;;;;;;;;;;;;5113781;28;20290;-70
2021/10/14 02:23:00;;;;;;;;;;;;;;;;;;5114153;28;19930;-72
2021/10/14 02:25:27;;;;;;;;;;;;;;;;;;5113989;28;19930;-71
2021/10/14 02:27:53;;;;;;;;;;;;;;;;;;5114283;28;19923;-70
2021/10/14 02:30:19;;;;;;;;;;;;;;;;;;5114026;28;19970;-70
2021/10/14 02:32:46;;;;;;;;;;;;;;;;;;5113941;28;20319;-70
2021/10/14 02:35:12;;;;;;;;;;;;;;;;;;5113578;28;19930;-70
2021/10/14 02:37:38;;;;;;;;;;;;;;;;;;5114131;28;19924;-70
2021/10/14 02:40:05;;;;;;;;;;;;;;;;;;5113490;28;20386;-70
2021/10/14 02:42:31;;;;;;;;;;;;;;;;;;5114054;28;19924;-70
2021/10/14 02:44:57;;;;;;;;;;;;;;;;;;5114019;28;20009;-70
2021/10/14 02:47:23;;;;;;;;;;;;;;;;;;5113445;28;19930;-71
2021/10/14 02:49:50;;;;;;;;;;;;;;;;;;5113922;28;19928;-70
2021/10/14 02:52:16;;;;;;;;;;;;;;;;;;5113275;28;20374;-70
2021/10/14 02:54:42;;;;;;;;;;;;;;;;;;5113785;28;19924;-71
2021/10/14 02:57:09;;;;;;;;;;;;;;;;;;5113232;28;19946;-71
2021/10/14 02:59:35;;;;;;;;;;;;;;;;;;5113457;28;19924;-71
2021/10/14 03:02:01;;;;;;;;;;;;;;;;;;5113768;28;19931;-71
2021/10/14 03:04:27;;;;;;;;;;;;;;;;;;5113360;28;20294;-71
2021/10/14 03:06:54;;;;;;;;;;;;;;;;;;5113104;28;19923;-71
2021/10/14 03:09:20;;;;;;;;;;;;;;;;;;5113408;28;19935;-71
2021/10/14 03:11:46;;;;;;;;;;;;;;;;;;5113243;28;19924;-71
2021/10/14 03:14:13;;;;;;;;;;;;;;;;;;5113321;28;19935;-71
2021/10/14 03:16:39;;;;;;;;;;;;;;;;;;5113222;28;20370;-71
2021/10/14 03:19:05;;;;;;;;;;;;;;;;;;5113133;28;19924;-71
2021/10/14 03:21:32;;;;;;;;;;;;;;;;;;5113350;28;19923;-70
2021/10/14 03:23:58;;;;;;;;;;;;;;;;;;5113117;28;19931;-70
2021/10/14 03:26:24;;;;;;;;;;;;;;;;;;5113032;28;19924;-71
2021/10/14 03:28:51;;;;;;;;;;;;;;;;;;5113031;28;20381;-71
2021/10/14 03:31:17;;;;;;;;;;;;;;;;;;5112163;28;19989;-71
2021/10/14 03:33:43;;;;;;;;;;;;;;;;;;5112821;28;19924;-71
2021/10/14 03:36:10;;;;;;;;;;;;;;;;;;5113058;28;19925;-71
2021/10/14 03:38:36;;;;;;;;;;;;;;;;;;5112937;28;19928;-71
2021/10/14 03:41:02;;;;;;;;;;;;;;;;;;5112987;28;19923;-71
2021/10/14 03:43:29;;;;;;;;;;;;;;;;;;5113010;28;20385;-72
2021/10/14 03:45:55;;;;;;;;;;;;;;;;;;5112547;28;19924;-71
2021/10/14 03:48:21;;;;;;;;;;;;;;;;;;5112920;28;20335;-71
2021/10/14 03:50:48;;;;;;;;;;;;;;;;;;5112768;28;19931;-70
2021/10/14 03:53:14;;;;;;;;;;;;;;;;;;5112863;28;19930;-73
2021/10/14 03:55:40;;;;;;;;;;;;;;;;;;5112958;28;19951;-72
2021/10/14 03:58:06;;;;;;;;;;;;;;;;;;5112222;28;19924;-73
2021/10/14 04:00:33;;;;;;;;;;;;;;;;;;5112922;28;19924;-72
2021/10/14 04:02:59;;;;;;;;;;;;;;;;;;5112738;28;20385;-70
2021/10/14 04:05:25;;;;;;;;;;;;;;;;;;5112250;28;19924;-72
2021/10/14 04:07:52;;;;;;;;;;;;;;;;;;5112949;28;19924;-70
2021/10/14 04:10:19;;;;;;;;;;;;;;;;;;5112320;28;20377;-71
2021/10/14 04:12:45;;;;;;;;;;;;;;;;;;5112846;28;19924;-71
2021/10/14 04:15:12;;;;;;;;;;;;;;;;;;5112255;28;20275;-71
2021/10/14 04:17:38;;;;;;;;;;;;;;;;;;5112777;28;19924;-71
2021/10/14 04:20:04;;;;;;;;;;;;;;;;;;5112569;28;19924;-72
2021/10/14 04:22:30;;;;;;;;;;;;;;;;;;5112500;28;19928;-71
2021/10/14 04:24:57;;;;;;;;;;;;;;;;;;5112757;28;19924;-71
2021/10/14 04:27:23;;;;;;;;;;;;;;;;;;5112190;28;19980;-71
2021/10/14 04:29:50;;;;;;;;;;;;;;;;;;5112823;28;19931;-71
2021/10/14 04:32:16;;;;;;;;;;;;;;;;;;5112244;28;20005;-71
2021/10/14 04:34:42;;;;;;;;;;;;;;;;;;5112638;28;19924;-71
2021/10/14 04:37:08;;;;;;;;;;;;;;;;;;5111946;28;20397;-71
2021/10/14 04:39:35;;;;;;;;;;;;;;;;;;5112331;28;19930;-71
2021/10/14 04:42:01;;;;;;;;;;;;;;;;;;5113454;28;19935;-71
2021/10/14 04:44:27;;;;;;;;;;;;;;;;;;5116039;28;19925;-71
2021/10/14 04:46:54;;;;;;;;;;;;;;;;;;5116272;28;19924;-71
2021/10/14 04:49:20;;;;;;;;;;;;;;;;;;5115674;28;20519;-71
2021/10/14 04:51:46;;;;;;;;;;;;;;;;;;5116173;28;19923;-71
2021/10/14 04:54:12;;;;;;;;;;;;;;;;;;5115983;28;19924;-71
2021/10/14 04:56:39;;;;;;;;;;;;;;;;;;5115582;28;19923;-71
2021/10/14 04:59:05;;;;;;;;;;;;;;;;;;5115869;28;19931;-71
2021/10/14 05:01:31;;;;;;;;;;;;;;;;;;5115618;28;19928;-71
2021/10/14 05:03:58;;;;;;;;;;;;;;;;;;5115912;28;19923;-71
2021/10/14 05:06:24;;;;;;;;;;;;;;;;;;5115337;28;20317;-71
2021/10/14 05:08:50;;;;;;;;;;;;;;;;;;5115629;28;19928;-71
2021/10/14 05:11:16;;;;;;;;;;;;;;;;;;5115606;28;19924;-71
2021/10/14 05:13:43;;;;;;;;;;;;;;;;;;5115282;28;20405;-71
2021/10/14 05:16:09;;;;;;;;;;;;;;;;;;5115484;28;19924;-72
2021/10/14 05:18:35;;;;;;;;;;;;;;;;;;5115738;28;19930;-71
2021/10/14 05:21:02;;;;;;;;;;;;;;;;;;5115203;28;19935;-72
2021/10/14 05:23:29;;;;;;;;;;;;;;;;;;5115288;28;20005;-72
2021/10/14 05:25:55;;;;;;;;;;;;;;;;;;5115179;28;19924;-70
2021/10/14 05:28:21;;;;;;;;;;;;;;;;;;5115214;28;19931;-69
2021/10/14 05:30:47;;;;;;;;;;;;;;;;;;5115076;28;20374;-69
2021/10/14 05:33:14;;;;;;;;;;;;;;;;;;5114831;28;19924;-70
2021/10/14 05:35:40;;;;;;;;;;;;;;;;;;5115344;28;19946;-70
2021/10/14 05:38:06;;;;;;;;;;;;;;;;;;5114665;28;19923;-72
2021/10/14 05:40:33;;;;;;;;;;;;;;;;;;5115153;28;19924;-72
2021/10/14 05:42:59;;;;;;;;;;;;;;;;;;5114982;28;20289;-72
2021/10/14 05:45:25;;;;;;;;;;;;;;;;;;5114934;28;19931;-69
2021/10/14 05:47:51;;;;;;;;;;;;;;;;;;5115056;28;19950;-70
2021/10/14 05:50:18;;;;;;;;;;;;;;;;;;5114601;28;19924;-69
2021/10/14 05:52:44;;;;;;;;;;;;;;;;;;5114887;28;19931;-69
2021/10/14 05:55:10;;;;;;;;;;;;;;;;;;5113325;28;19927;-69
2021/10/14 05:57:37;;;;;;;;;;;;;;;;;;5114623;28;19923;-70
2021/10/14 06:00:03;;;;;;;;;;;;;;;;;;5114296;28;20408;-69
2021/10/14 06:02:29;;;;;;;;;;;;;;;;;;5114726;28;19924;-69
2021/10/14 06:04:55;;;;;;;;;;;;;;;;;;5114664;28;20290;-69
2021/10/14 06:07:22;;;;;;;;;;;;;;;;;;5114018;28;19932;-69
2021/10/14 06:09:48;;;;;;;;;;;;;;;;;;5114583;28;19924;-69
2021/10/14 06:12:14;;;;;;;;;;;;;;;;;;5113929;28;19931;-70
2021/10/14 06:14:41;;;;;;;;;;;;;;;;;;5114450;28;19931;-69
2021/10/14 06:17:07;;;;;;;;;;;;;;;;;;5113836;28;20381;-69
2021/10/14 06:19:33;;;;;;;;;;;;;;;;;;5114369;28;19931;-69
2021/10/14 06:21:59;;;;;;;;;;;;;;;;;;5114042;28;20385;-69
2021/10/14 06:24:26;;;;;;;;;;;;;;;;;;5114227;28;19923;-69
2021/10/14 06:26:52;;;;;;;;;;;;;;;;;;5113767;28;20499;-69
2021/10/14 06:29:18;;;;;;;;;;;;;;;;;;5113946;28;19924;-69
2021/10/14 06:31:45;;;;;;;;;;;;;;;;;;5114297;28;19987;-69
2021/10/14 06:34:11;;;;;;;;;;;;;;;;;;5113768;28;19931;-69
2021/10/14 06:36:37;;;;;;;;;;;;;;;;;;5114198;28;19931;-69
2021/10/14 06:39:04;;;;;;;;;;;;;;;;;;5113511;28;19923;-69
2021/10/14 06:41:30;;;;;;;;;;;;;;;;;;5114042;28;19924;-69
2021/10/14 06:43:56;;;;;;;;;;;;;;;;;;5114026;28;20018;-69
2021/10/14 06:46:23;;;;;;;;;;;;;;;;;;5113464;28;19934;-69
2021/10/14 06:48:49;;;;;;;;;;;;;;;;;;5113964;28;19924;-69
2021/10/14 06:51:15;;;;;;;;;;;;;;;;;;5113260;28;20386;-69
2021/10/14 06:53:41;;;;;;;;;;;;;;;;;;5113533;28;19924;-69
2021/10/14 06:56:08;;;;;;;;;;;;;;;;;;5113655;28;19924;-70
2021/10/14 06:58:34;;;;;;;;;;;;;;;;;;5113356;28;19923;-69
2021/10/14 07:01:00;;;;;;;;;;;;;;;;;;5113750;28;19930;-69
2021/10/14 07:03:27;;;;;;;;;;;;;;;;;;5113310;28;20274;-69
2021/10/14 07:05:53;;;;;;;;;;;;;;;;;;5113089;28;19927;-70
2021/10/14 07:08:19;;;;;;;;;;;;;;;;;;5113362;28;19931;-69
2021/10/14 07:10:47;;;;;;;;;;;;;;;;;;5113259;28;20382;-69
2021/10/14 07:13:13;;;;;;;;;;;;;;;;;;5113626;28;19977;-70
2021/10/14 07:15:39;;;;;;;;;;;;;;;;;;5113191;28;20305;-69
2021/10/14 07:18:06;;;;;;;;;;;;;;;;;;5113012;28;19949;-69
2021/10/14 07:20:32;;;;;;;;;;;;;;;;;;5113360;28;19946;-69
2021/10/14 07:22:58;;;;;;;;;;;;;;;;;;5113133;28;19924;-69
2021/10/14 07:25:25;;;;;;;;;;;;;;;;;;5113100;28;19931;-70
2021/10/14 07:27:51;;;;;;;;;;;;;;;;;;5112936;28;19928;-69
2021/10/14 07:30:17;;;;;;;;;;;;;;;;;;5113044;28;19923;-70
2021/10/14 07:32:43;;;;;;;;;;;;;;;;;;5113029;28;19935;-69
2021/10/14 07:35:10;;;;;;;;;;;;;;;;;;5112985;28;19924;-70
2021/10/14 07:37:36;;;;;;;;;;;;;;;;;;5113244;28;19923;-69
2021/10/14 07:40:02;;;;;;;;;;;;;;;;;;5112590;28;19931;-69
2021/10/14 07:42:29;;;;;;;;;;;;;;;;;;5113203;28;19931;-69
2021/10/14 07:44:55;;;;;;;;;;;;;;;;;;5112806;28;20292;-69
2021/10/14 07:47:21;;;;;;;;;;;;;;;;;;5112595;28;19931;-70
2021/10/14 07:49:47;;;;;;;;;;;;;;;;;;5113059;28;19924;-70
2021/10/14 07:52:14;;;;;;;;;;;;;;;;;;5112500;28;19924;-69
2021/10/14 07:54:40;;;;;;;;;;;;;;;;;;5113117;28;19924;-69
2021/10/14 07:57:06;;;;;;;;;;;;;;;;;;5112191;28;19924;-69
2021/10/14 07:59:33;;;;;;;;;;;;;;;;;;5112994;28;19924;-69
2021/10/14 08:01:59;;;;;;;;;;;;;;;;;;5113105;28;19927;-69
2021/10/14 08:04:25;;;;;;;;;;;;;;;;;;5112769;28;19997;-70
2021/10/14 08:06:52;;;;;;;;;;;;;;;;;;5112594;28;20366;-70
2021/10/14 08:09:18;;;;;;;;;;;;;;;;;;5112665;28;20102;-69
2021/10/14 08:11:44;;;;;;;;;;;;;;;;;;5112852;28;19928;-69
2021/10/14 08:14:12;;;;;;;;;;;;;;;;;;5112388;28;19923;-70
2021/10/14 08:16:39;;;;;;;;;;;;;;;;;;5113180;28;19966;-70
2021/10/14 08:19:05;;;;;;;;;;;;;;;;;;5116682;28;19947;-69
2021/10/14 08:21:31;;;;;;;;;;;;;;;;;;5116594;28;19930;-69
2021/10/14 08:23:58;;;;;;;;;;;;;;;;;;5116697;28;19930;-69
2021/10/14 08:26:24;;;;;;;;;;;;;;;;;;5116145;28;20105;-68
2021/10/14 08:28:50;;;;;;;;;;;;;;;;;;5116628;28;19931;-70
2021/10/14 08:31:16;;;;;;;;;;;;;;;;;;5116443;28;19947;-68
2021/10/14 08:33:43;;;;;;;;;;;;;;;;;;5116325;28;19931;-68
2021/10/14 08:36:10;;;;;;;;;;;;;;;;;;5116368;28;19931;-68
2021/10/14 08:38:36;;;;;;;;;;;;;;;;;;5116442;28;19980;-68
2021/10/14 08:41:03;;;;;;;;;;;;;;;;;;5115862;28;20400;-68
2021/10/14 08:43:29;;;;;;;;;;;;;;;;;;5116132;28;19923;-68
2021/10/14 08:45:55;;;;;;;;;;;;;;;;;;5116425;28;20024;-68
2021/10/14 08:48:22;;;;;;;;;;;;;;;;;;5115799;28;19939;-68
2021/10/14 08:50:48;;;;;;;;;;;;;;;;;;5116261;28;19924;-68
2021/10/14 08:53:14;;;;;;;;;;;;;;;;;;5115850;28;19934;-68
2021/10/14 08:55:41;;;;;;;;;;;;;;;;;;5115910;28;19931;-68
2021/10/14 08:58:07;;;;;;;;;;;;;;;;;;5115580;28;19923;-68
2021/10/14 09:00:34;;;;;;;;;;;;;;;;;;5115748;28;20036;-68
2021/10/14 09:03:00;;;;;;;;;;;;;;;;;;5115571;28;19928;-68
2021/10/14 09:05:26;;;;;;;;;;;;;;;;;;5116197;28;20026;-68
2021/10/14 09:07:53;;;;;;;;;;;;;;;;;;5115627;28;20293;-69
2021/10/14 09:10:19;;;;;;;;;;;;;;;;;;5115476;28;19924;-69
2021/10/14 09:12:46;;;;;;;;;;;;;;;;;;5115786;28;19924;-69
2021/10/14 09:15:12;;;;;;;;;;;;;;;;;;5115510;28;19974;-69
2021/10/14 09:17:39;;;;;;;;;;;;;;;;;;5115438;28;20396;-69
2021/10/14 09:20:05;;;;;;;;;;;;;;;;;;5115525;28;19924;-69
2021/10/14 09:22:31;;;;;;;;;;;;;;;;;;5115655;28;19924;-69
2021/10/14 09:24:58;;;;;;;;;;;;;;;;;;5115250;28;19923;-69
2021/10/14 09:27:24;;;;;;;;;;;;;;;;;;5115318;28;19927;-69
2021/10/14 09:29:50;;;;;;;;;;;;;;;;;;5115170;28;20285;-69
2021/10/14 09:32:18;;;;;;;;;;;;;;;;;;5114922;28;19924;-69
2021/10/14 09:34:45;;;;;;;;;;;;;;;;;;5115470;28;19928;-69
2021/10/14 09:37:11;;;;;;;;;;;;;;;;;;5115399;28;19946;-70
2021/10/14 09:39:37;;;;;;;;;;;;;;;;;;5115061;28;19939;-69
2021/10/14 09:42:03;;;;;;;;;;;;;;;;;;5114705;28;19932;-69
2021/10/14 09:44:30;;;;;;;;;;;;;;;;;;5115289;28;20018;-69
2021/10/14 09:46:56;;;;;;;;;;;;;;;;;;5114653;28;20298;-69
2021/10/14 09:49:23;;;;;;;;;;;;;;;;;;5114772;28;19928;-69
2021/10/14 09:51:49;;;;;;;;;;;;;;;;;;5114921;28;19924;-69
2021/10/14 09:54:15;;;;;;;;;;;;;;;;;;5114337;28;19928;-69
2021/10/14 09:56:42;;;;;;;;;;;;;;;;;;5114794;28;19924;-69
2021/10/14 09:59:08;;;;;;;;;;;;;;;;;;5114742;28;19924;-69
2021/10/14 10:01:34;;;;;;;;;;;;;;;;;;5114504;28;19924;-70
2021/10/14 10:04:00;;;;;;;;;;;;;;;;;;5114548;28;19924;-69
2021/10/14 10:06:27;;;;;;;;;;;;;;;;;;5114736;28;19923;-69
2021/10/14 10:08:53;;;;;;;;;;;;;;;;;;5114390;28;20305;-69
2021/10/14 10:11:20;;;;;;;;;;;;;;;;;;5114242;28;19931;-69
2021/10/14 10:13:47;;;;;;;;;;;;;;;;;;5114627;28;20370;-69
2021/10/14 10:16:14;;;;;;;;;;;;;;;;;;5114441;28;19924;-70
2021/10/14 10:18:43;;;;;;;;;;;;;;;;;;5114270;28;20320;-69
2021/10/14 10:21:10;;;;;;;;;;;;;;;;;;5114209;28;19924;-69
2021/10/14 10:23:36;;;;;;;;;;;;;;;;;;5114359;28;19968;-69
2021/10/14 10:26:02;;;;;;;;;;;;;;;;;;5113829;28;20293;-69
2021/10/14 10:28:29;;;;;;;;;;;;;;;;;;5113998;28;19924;-69
2021/10/14 10:30:55;;;;;;;;;;;;;;;;;;5114233;28;19934;-69
2021/10/14 10:33:21;;;;;;;;;;;;;;;;;;5113781;28;20374;-69
2021/10/14 10:35:49;;;;;;;;;;;;;;;;;;5113836;28;19924;-69
2021/10/14 10:38:15;;;;;;;;;;;;;;;;;;5113642;28;19935;-69
2021/10/14 10:40:42;;;;;;;;;;;;;;;;;;5113337;28;19924;-69
2021/10/14 10:43:08;;;;;;;;;;;;;;;;;;5113782;28;19924;-69
2021/10/14 10:45:35;;;;;;;;;;;;;;;;;;5114023;28;20018;-69
2021/10/14 10:48:01;;;;;;;;;;;;;;;;;;5113483;28;19924;-69
2021/10/14 10:50:27;;;;;;;;;;;;;;;;;;5113996;28;19931;-69
2021/10/14 10:52:53;;;;;;;;;;;;;;;;;;5113813;28;19947;-69
2021/10/14 10:55:20;;;;;;;;;;;;;;;;;;5113278;28;19924;-69
2021/10/14 10:57:46;;;;;;;;;;;;;;;;;;5113355;28;19923;-69
2021/10/14 11:00:12;;;;;;;;;;;;;;;;;;5113200;28;19971;-69
2021/10/14 11:02:39;;;;;;;;;;;;;;;;;;5113657;28;19930;-69
2021/10/14 11:05:05;;;;;;;;;;;;;;;;;;5113087;28;19928;-69
2021/10/14 11:07:31;;;;;;;;;;;;;;;;;;5113021;28;19953;-69
2021/10/14 11:09:58;;;;;;;;;;;;;;;;;;5113666;28;19931;-69
2021/10/14 11:12:24;;;;;;;;;;;;;;;;;;5112941;28;20270;-69
2021/10/14 11:14:50;;;;;;;;;;;;;;;;;;5113129;28;19939;-69
2021/10/14 11:17:17;;;;;;;;;;;;;;;;;;5113151;28;19946;-69
2021/10/14 11:19:43;;;;;;;;;;;;;;;;;;5113078;28;19928;-69
2021/10/14 11:22:09;;;;;;;;;;;;;;;;;;5113141;28;19947;-69
2021/10/14 11:24:35;;;;;;;;;;;;;;;;;;5112967;28;19927;-69
2021/10/14 11:27:02;;;;;;;;;;;;;;;;;;5112917;28;19924;-69
2021/10/14 11:29:30;;;;;;;;;;;;;;;;;;5112935;28;20397;-69
2021/10/14 11:31:58;;;;;;;;;;;;;;;;;;5113304;28;19931;-69
2021/10/14 11:34:24;;;;;;;;;;;;;;;;;;5112653;28;20393;-69
2021/10/14 11:36:51;;;;;;;;;;;;;;;;;;5112744;28;19931;-68
2021/10/14 11:39:17;;;;;;;;;;;;;;;;;;5112966;28;19923;-69
2021/10/14 11:41:43;;;;;;;;;;;;;;;;;;5112895;28;19931;-69
2021/10/14 11:44:09;;;;;;;;;;;;;;;;;;5113049;28;19930;-68
2021/10/14 11:46:36;;;;;;;;;;;;;;;;;;5113203;28;19934;-69
2021/10/14 11:49:02;;;;;;;;;;;;;;;;;;5112323;28;20301;-69
2021/10/14 11:51:30;;;;;;;;;;;;;;;;;;5112651;28;19923;-69
2021/10/14 11:53:56;;;;;;;;;;;;;;;;;;5117214;28;19927;-69
2021/10/14 11:56:22;;;;;;;;;;;;;;;;;;5116843;28;19942;-69
2021/10/14 11:58:48;;;;;;;;;;;;;;;;;;5116904;28;19931;-69
2021/10/14 12:01:15;;;;;;;;;;;;;;;;;;5116632;28;20294;-69
2021/10/14 12:03:41;;;;;;;;;;;;;;;;;;5116945;28;19924;-69
2021/10/14 12:06:07;;;;;;;;;;;;;;;;;;5116808;28;19924;-68
2021/10/14 12:08:34;;;;;;;;;;;;;;;;;;5116709;28;20278;-69
2021/10/14 12:11:00;;;;;;;;;;;;;;;;;;5117051;28;19932;-69
2021/10/14 12:13:26;;;;;;;;;;;;;;;;;;5116714;28;20309;-68
2021/10/14 12:15:52;;;;;;;;;;;;;;;;;;5116587;28;19931;-68
2021/10/14 12:18:19;;;;;;;;;;;;;;;;;;5116654;28;19924;-68
2021/10/14 12:20:45;;;;;;;;;;;;;;;;;;5116532;28;19924;-69
2021/10/14 12:23:11;;;;;;;;;;;;;;;;;;5116194;28;19977;-69
2021/10/14 12:25:38;;;;;;;;;;;;;;;;;;5116556;28;19923;-69
2021/10/14 12:28:04;;;;;;;;;;;;;;;;;;5116156;28;20381;-69
2021/10/14 12:30:30;;;;;;;;;;;;;;;;;;5116355;28;19924;-69
2021/10/14 12:32:57;;;;;;;;;;;;;;;;;;5116495;28;19942;-69
2021/10/14 12:35:23;;;;;;;;;;;;;;;;;;5115974;28;19923;-69
2021/10/14 12:37:49;;;;;;;;;;;;;;;;;;5116507;28;19924;-69
2021/10/14 12:40:16;;;;;;;;;;;;;;;;;;5115988;28;19923;-69
2021/10/14 12:45:27;;;;;;;;;;;;;;;;;;5112826;28;19942;-69
2021/10/14 12:47:54;;;;;;;;;;;;;;;;;;5116120;28;19967;-69
2021/10/14 12:50:31;;;;;;;;;;;;;;;;;;5116004;28;19924;-69
2021/10/14 12:52:57;;;;;;;;;;;;;;;;;;5115921;28;20016;-69
2021/10/14 12:55:24;;;;;;;;;;;;;;;;;;5115823;28;19924;-69
2021/10/14 12:57:50;;;;;;;;;;;;;;;;;;5115655;28;19931;-69
2021/10/14 13:00:16;;;;;;;;;;;;;;;;;;5115856;28;19931;-69
2021/10/14 13:02:42;;;;;;;;;;;;;;;;;;5115484;28;19947;-69
2021/10/14 13:05:09;;;;;;;;;;;;;;;;;;5115433;28;19924;-69
2021/10/14 13:07:35;;;;;;;;;;;;;;;;;;5115824;28;19930;-69
2021/10/14 13:10:02;;;;;;;;;;;;;;;;;;5115725;28;19947;-69
2021/10/14 13:12:28;;;;;;;;;;;;;;;;;;5115761;28;19927;-69
2021/10/14 13:14:54;;;;;;;;;;;;;;;;;;5115440;28;19931;-69
2021/10/14 13:17:21;;;;;;;;;;;;;;;;;;5115592;28;19930;-69
2021/10/14 13:19:47;;;;;;;;;;;;;;;;;;5115600;28;19927;-69
2021/10/14 13:22:13;;;;;;;;;;;;;;;;;;5115143;28;19924;-69
2021/10/14 13:24:40;;;;;;;;;;;;;;;;;;5115481;28;19924;-69
2021/10/14 13:27:06;;;;;;;;;;;;;;;;;;5114983;28;20382;-69
2021/10/14 13:29:32;;;;;;;;;;;;;;;;;;5115090;28;19923;-69
2021/10/14 13:31:58;;;;;;;;;;;;;;;;;;5115847;28;19924;-69
2021/10/14 13:34:25;;;;;;;;;;;;;;;;;;5115676;28;19931;-69
2021/10/14 13:36:52;;;;;;;;;;;;;;;;;;5115326;28;19928;-69
2021/10/14 13:39:18;;;;;;;;;;;;;;;;;;5114884;28;19924;-69
2021/10/14 13:41:44;;;;;;;;;;;;;;;;;;5115263;28;19930;-69
2021/10/14 13:44:16;;;;;;;;;;;;;;;;;;5114639;28;20405;-69
2021/10/14 13:46:43;;;;;;;;;;;;;;;;;;5114746;28;19931;-69
2021/10/14 13:49:09;;;;;;;;;;;;;;;;;;5114877;28;19924;-69
2021/10/14 13:51:36;;;;;;;;;;;;;;;;;;5114812;28;19923;-69
2021/10/14 13:54:02;;;;;;;;;;;;;;;;;;5114559;28;19998;-69
2021/10/14 13:56:29;;;;;;;;;;;;;;;;;;5114930;28;20000;-69
2021/10/14 13:58:55;;;;;;;;;;;;;;;;;;5114506;28;20365;-70
2021/10/14 14:01:21;;;;;;;;;;;;;;;;;;5115592;28;19924;-80
2021/10/14 14:03:48;;;;;;;;;;;;;;;;;;5115273;28;19924;-68
2021/10/14 14:06:14;;;;;;;;;;;;;;;;;;5114614;28;19924;-69
2021/10/14 14:08:40;;;;;;;;;;;;;;;;;;5114617;28;19931;-69
2021/10/14 14:11:07;;;;;;;;;;;;;;;;;;5115315;28;19924;-69
2021/10/14 14:13:33;;;;;;;;;;;;;;;;;;5115606;28;20393;-70
2021/10/14 14:15:59;;;;;;;;;;;;;;;;;;5114341;28;19923;-70
2021/10/14 14:18:25;;;;;;;;;;;;;;;;;;5114869;28;19931;-72
2021/10/14 14:20:54;;;;;;;;;;;;;;;;;;5114386;28;20421;-71
2021/10/14 14:23:20;;;;;;;;;;;;;;;;;;5114312;28;20372;-78
2021/10/14 14:25:46;;;;;;;;;;;;;;;;;;5114112;28;19923;-72
2021/10/14 14:28:13;;;;;;;;;;;;;;;;;;5114046;28;19923;-70
2021/10/14 14:30:39;;;;;;;;;;;;;;;;;;5114002;28;19931;-70
2021/10/14 14:33:05;;;;;;;;;;;;;;;;;;5113999;28;19931;-70
2021/10/14 14:35:32;;;;;;;;;;;;;;;;;;5114264;28;19924;-73
2021/10/14 14:37:58;;;;;;;;;;;;;;;;;;5113943;28;20297;-71
2021/10/14 14:40:26;;;;;;;;;;;;;;;;;;5113916;28;19924;-74
2021/10/14 14:42:52;;;;;;;;;;;;;;;;;;5113899;28;19971;-72
2021/10/14 14:45:18;;;;;;;;;;;;;;;;;;5113507;28;19928;-71
2021/10/14 14:47:46;;;;;;;;;;;;;;;;;;5114005;28;19944;-72
2021/10/14 14:53:10;;;;;;;;;;;;;;;;;;5050463;28;20398;-72
2021/10/14 14:55:36;;;;;;;;;;;;;;;;;;5050571;28;19978;-72
2021/10/14 14:58:03;;;;;;;;;;;;;;;;;;5076857;28;19931;-72
2021/10/14 15:00:29;;;;;;;;;;;;;;;;;;5113741;28;20297;-72
2021/10/14 15:02:57;;;;;;;;;;;;;;;;;;5113073;28;20220;-72
2021/10/14 15:05:24;;;;;;;;;;;;;;;;;;5113148;28;19924;-72
2021/10/14 15:07:50;;;;;;;;;;;;;;;;;;5113709;28;19924;-72
2021/10/14 15:10:16;;;;;;;;;;;;;;;;;;5112811;28;20390;-72
2021/10/14 15:12:43;;;;;;;;;;;;;;;;;;5113356;28;19924;-72
2021/10/14 15:15:10;;;;;;;;;;;;;;;;;;5112997;28;19923;-72
2021/10/14 15:17:36;;;;;;;;;;;;;;;;;;5113115;28;19924;-71
2021/10/14 15:20:02;;;;;;;;;;;;;;;;;;5113247;28;19923;-72
2021/10/14 15:22:29;;;;;;;;;;;;;;;;;;5113021;28;20390;-72
2021/10/14 15:24:55;;;;;;;;;;;;;;;;;;5112979;28;19934;-71
2021/10/14 15:27:23;;;;;;;;;;;;;;;;;;5113037;28;19923;-71
2021/10/14 15:29:50;;;;;;;;;;;;;;;;;;5113261;28;20319;-72
2021/10/14 15:32:16;;;;;;;;;;;;;;;;;;5112719;28;19923;-72
2021/10/14 15:34:42;;;;;;;;;;;;;;;;;;5113240;28;19923;-72
2021/10/14 15:37:09;;;;;;;;;;;;;;;;;;5112926;28;19924;-72
2021/10/14 15:39:38;;;;;;;;;;;;;;;;;;5112908;28;20378;-72
2021/10/14 15:42:04;;;;;;;;;;;;;;;;;;5112954;28;19924;-71
2021/10/14 15:44:30;;;;;;;;;;;;;;;;;;5112776;28;20386;-71
2021/10/14 15:46:57;;;;;;;;;;;;;;;;;;5113023;28;19924;-72
2021/10/14 15:49:23;;;;;;;;;;;;;;;;;;5112642;28;19931;-71
2021/10/14 15:51:50;;;;;;;;;;;;;;;;;;5112625;28;20382;-72
2021/10/14 15:54:16;;;;;;;;;;;;;;;;;;5112729;28;19965;-71
2021/10/14 15:56:43;;;;;;;;;;;;;;;;;;5112776;28;19924;-71
2021/10/14 15:59:10;;;;;;;;;;;;;;;;;;5112681;28;19966;-71
2021/10/14 16:01:37;;;;;;;;;;;;;;;;;;5113046;28;19946;-70
2021/10/14 16:04:03;;;;;;;;;;;;;;;;;;5112717;28;19945;-71
2021/10/14 16:06:30;;;;;;;;;;;;;;;;;;5112663;28;19924;-71
2021/10/14 16:08:56;;;;;;;;;;;;;;;;;;5113001;28;19924;-71
2021/10/14 16:11:22;;;;;;;;;;;;;;;;;;5112676;28;20302;-71
2021/10/14 16:13:48;;;;;;;;;;;;;;;;;;5112635;28;19928;-71
2021/10/14 16:16:15;;;;;;;;;;;;;;;;;;5112647;28;19931;-71
2021/10/14 16:18:41;;;;;;;;;;;;;;;;;;5112529;28;20393;-71
2021/10/14 16:21:08;;;;;;;;;;;;;;;;;;5112226;28;19930;-71
2021/10/14 16:23:34;;;;;;;;;;;;;;;;;;5112454;28;19931;-71
2021/10/14 16:26:01;;;;;;;;;;;;;;;;;;5110907;28;19930;-72
2021/10/14 16:28:27;;;;;;;;;;;;;;;;;;5112343;28;20378;-72
2021/10/14 16:31:00;;;;;;;;;;;;;;;;;;5112503;28;19924;-72
2021/10/14 16:33:33;;;;;;;;;;;;;;;;;;5112463;28;19930;-72
2021/10/14 16:35:59;;;;;;;;;;;;;;;;;;5112459;28;19927;-73
2021/10/14 16:38:25;;;;;;;;;;;;;;;;;;5113840;28;19924;-73
2021/10/14 16:40:52;;;;;;;;;;;;;;;;;;5116116;28;20385;-71
2021/10/14 16:43:18;;;;;;;;;;;;;;;;;;5115761;28;19923;-72
2021/10/14 16:45:44;;;;;;;;;;;;;;;;;;5116396;28;20025;-71